Time;durP1;ratioP1;P1;durP2;ratioP2;P2;SDS_P1;SDS_P2;PMS_P1;PMS_P2;Temp;Humidity;BMP_temperature;BMP_pressure;BME280_temperature;BME280_humidity;BME280_pressure;Samples;Min_cycle;Max_cycle;Signal;HPM_P1;HPM_P2
2023/02/04 00:01:39;;;;;;;1999.90;999.90;;;;;;;2.95;100.00;97994.06;5072776;28;20060;-76
2023/02/04 00:04:04;;;;;;;1999.90;999.90;;;;;;;2.88;100.00;97969.09;5091205;28;20077;-76
2023/02/04 00:06:30;;;;;;;1999.90;999.90;;;;;;;2.91;100.00;97971.31;5089912;28;20032;-76
2023/02/04 00:08:55;;;;;;;1999.90;999.90;;;;;;;2.96;100.00;97978.66;5091377;28;20068;-77
2023/02/04 00:11:21;;;;;;;1999.90;999.90;;;;;;;2.89;100.00;97991.50;5091711;28;20056;-77
2023/02/04 00:13:46;;;;;;;1999.90;999.90;;;;;;;2.86;100.00;97979.31;5091802;28;20479;-77
2023/02/04 00:16:11;;;;;;;1999.90;999.90;;;;;;;2.77;100.00;97986.19;5090803;28;20119;-77
2023/02/04 00:18:37;;;;;;;1999.90;999.90;;;;;;;2.79;100.00;97983.28;5090488;28;20052;-76
2023/02/04 00:21:02;;;;;;;1999.90;999.90;;;;;;;2.81;100.00;97975.72;5091258;28;20032;-79
2023/02/04 00:23:28;;;;;;;1999.90;999.90;;;;;;;2.76;100.00;97992.66;5090534;28;20032;-76
2023/02/04 00:25:53;;;;;;;1999.90;999.90;;;;;;;2.70;100.00;97996.34;5090521;28;20020;-77
2023/02/04 00:28:18;;;;;;;1999.90;999.90;;;;;;;2.66;100.00;97997.91;5091145;28;20364;-78
2023/02/04 00:30:44;;;;;;;1999.90;999.90;;;;;;;2.56;100.00;97989.63;5090030;28;20035;-76
2023/02/04 00:33:10;;;;;;;1999.90;999.90;;;;;;;2.54;100.00;98007.91;5090822;28;20106;-78
2023/02/04 00:35:38;;;;;;;1999.90;999.90;;;;;;;2.41;100.00;98010.94;5091062;28;20028;-76
2023/02/04 00:38:04;;;;;;;1999.90;999.90;;;;;;;2.36;100.00;98002.72;5089378;28;20122;-76
2023/02/04 00:40:29;;;;;;;1999.90;999.90;;;;;;;2.26;100.00;97989.03;5093751;28;20518;-76
2023/02/04 00:42:55;;;;;;;1999.90;999.90;;;;;;;2.21;100.00;98000.56;5084862;28;20062;-77
2023/02/04 00:45:20;;;;;;;1999.90;999.90;;;;;;;2.21;100.00;98007.84;5086193;28;20391;-76
2023/02/04 00:47:46;;;;;;;1999.90;999.90;;;;;;;2.05;100.00;97991.38;5093682;28;20427;-76
2023/02/04 00:50:11;;;;;;;1999.90;999.90;;;;;;;2.02;100.00;98008.03;5074081;28;20225;-77
2023/02/04 00:52:37;;;;;;;1999.90;999.90;;;;;;;1.89;100.00;97978.63;5073030;28;20044;-77
2023/02/04 00:55:02;;;;;;;1999.90;999.90;;;;;;;2.02;100.00;97989.16;5073310;28;20064;-76
2023/02/04 00:57:28;;;;;;;1999.90;999.90;;;;;;;1.86;100.00;97979.13;5073067;28;20052;-76
2023/02/04 00:59:53;;;;;;;1999.90;999.90;;;;;;;1.90;100.00;97996.47;5073397;28;20536;-79
2023/02/04 01:02:18;;;;;;;1999.90;999.90;;;;;;;1.91;100.00;98003.47;5055287;28;20024;-78
2023/02/04 01:04:44;;;;;;;1999.90;999.90;;;;;;;1.81;100.00;97997.91;5073995;28;20028;-76
2023/02/04 01:07:09;;;;;;;1999.90;999.90;;;;;;;1.80;100.00;97990.88;5074371;28;20024;-75
2023/02/04 01:09:34;;;;;;;1999.90;999.90;;;;;;;1.77;100.00;97988.63;5074643;28;20485;-79
2023/02/04 01:12:00;;;;;;;1999.90;999.90;;;;;;;1.71;100.00;97991.47;5074673;28;20028;-75
2023/02/04 01:14:25;;;;;;;1999.90;999.90;;;;;;;1.64;100.00;98007.78;5075099;28;20035;-76
2023/02/04 01:16:51;;;;;;;1999.90;999.90;;;;;;;1.53;100.00;98000.53;5073522;28;20033;-76
2023/02/04 01:19:16;;;;;;;1999.90;999.90;;;;;;;1.52;100.00;98012.34;5073952;28;20032;-75
2023/02/04 01:21:41;;;;;;;1999.90;999.90;;;;;;;1.39;100.00;98010.72;5073119;28;20514;-78
2023/02/04 01:24:07;;;;;;;1999.90;999.90;;;;;;;1.47;100.00;98017.66;5071490;28;20025;-76
2023/02/04 01:26:32;;;;;;;1999.90;999.90;;;;;;;1.45;100.00;98009.78;5072816;28;20024;-75
2023/02/04 01:28:58;;;;;;;1999.90;999.90;;;;;;;1.40;100.00;97995.38;5073039;28;20116;-75
2023/02/04 01:31:23;;;;;;;1999.90;999.90;;;;;;;1.37;100.00;98001.25;5072818;28;20500;-76
2023/02/04 01:33:49;;;;;;;1999.90;999.90;;;;;;;1.28;100.00;97991.88;5072949;28;20021;-75
2023/02/04 01:36:20;;;;;;;1999.90;999.90;;;;;;;1.43;100.00;97995.75;5073294;28;20024;-76
2023/02/04 01:38:46;;;;;;;1999.90;999.90;;;;;;;1.37;100.00;98001.25;5071422;28;20035;-76
2023/02/04 01:41:11;;;;;;;1999.90;999.90;;;;;;;1.42;100.00;97999.47;5072501;28;20032;-77
2023/02/04 01:43:36;;;;;;;1999.90;999.90;;;;;;;1.28;100.00;97984.63;5072741;28;20115;-75
2023/02/04 01:46:02;;;;;;;1999.90;999.90;;;;;;;1.25;100.00;97992.34;5072780;28;20075;-75
2023/02/04 01:48:27;;;;;;;1999.90;999.90;;;;;;;1.27;100.00;97985.69;5072316;28;20100;-75
2023/02/04 01:51:00;;;;;;;1999.90;999.90;;;;;;;1.34;100.00;98007.09;5071694;28;20020;-76
2023/02/04 01:53:26;;;;;;;1999.90;999.90;;;;;;;1.24;100.00;97988.00;5072590;28;20063;-78
2023/02/04 01:55:51;;;;;;;1999.90;999.90;;;;;;;1.19;100.00;97990.59;5070921;28;20024;-75
2023/02/04 01:58:17;;;;;;;1999.90;999.90;;;;;;;1.21;100.00;98010.03;5072467;28;20504;-76
2023/02/04 02:00:43;;;;;;;1999.90;999.90;;;;;;;1.23;100.00;98000.66;5071464;28;20097;-75
2023/02/04 02:03:10;;;;;;;1999.90;999.90;;;;;;;1.06;100.00;97995.19;5070846;28;20032;-77
2023/02/04 02:05:45;;;;;;;1999.90;999.90;;;;;;;1.04;100.00;97994.56;5072536;28;20452;-75
2023/02/04 02:08:12;;;;;;;1999.90;999.90;;;;;;;1.09;100.00;97988.50;5072044;28;20029;-75
2023/02/04 02:10:40;;;;;;;1999.90;999.90;;;;;;;1.16;100.00;97989.19;5071988;28;20048;-75
2023/02/04 02:13:09;;;;;;;1999.90;999.90;;;;;;;1.06;100.00;97995.19;5073258;28;20036;-75
2023/02/04 02:15:34;;;;;;;1999.90;999.90;;;;;;;1.03;100.00;98001.00;5071835;28;20028;-76
2023/02/04 02:18:00;;;;;;;1999.90;999.90;;;;;;;1.03;100.00;98003.69;5070255;28;20020;-75
2023/02/04 02:20:28;;;;;;;1999.90;999.90;;;;;;;1.06;100.00;98014.03;5071817;28;20497;-76
2023/02/04 02:23:13;;;;;;;1999.90;999.90;;;;;;;0.97;100.00;98012.69;5071436;28;20491;-75
2023/02/04 02:25:39;;;;;;;1999.90;999.90;;;;;;;0.96;100.00;98002.19;5070401;28;20120;-75
2023/02/04 02:28:09;;;;;;;1999.90;999.90;;;;;;;0.94;100.00;98018.56;5071689;28;20493;-75
2023/02/04 02:30:34;;;;;;;1999.90;999.90;;;;;;;0.86;100.00;98010.84;5071941;28;20445;-75
2023/02/04 02:33:00;;;;;;;1999.90;999.90;;;;;;;0.82;100.00;98009.66;5071642;28;20063;-75
2023/02/04 02:35:25;;;;;;;1999.90;999.90;;;;;;;0.80;100.00;97997.47;5071730;28;20025;-77
2023/02/04 02:37:51;;;;;;;1999.90;999.90;;;;;;;0.82;100.00;98006.94;5071658;28;20036;-75
2023/02/04 02:40:16;;;;;;;1999.90;999.90;;;;;;;0.90;100.00;98003.13;5071372;28;20089;-74
2023/02/04 02:42:44;;;;;;;1999.90;999.90;;;;;;;0.86;100.00;98010.84;5071241;28;20111;-74
2023/02/04 02:45:21;;;;;;;1999.90;999.90;;;;;;;0.77;100.00;98006.84;5071471;28;20031;-74
2023/02/04 02:47:47;;;;;;;1999.90;999.90;;;;;;;0.66;100.00;97999.53;5071305;28;20070;-74
2023/02/04 02:50:16;;;;;;;1999.90;999.90;;;;;;;0.66;100.00;97991.47;5071407;28;20353;-75
2023/02/04 02:52:41;;;;;;;1999.90;999.90;;;;;;;0.64;100.00;98004.34;5071590;28;20028;-75
2023/02/04 02:55:16;;;;;;;1999.90;999.90;;;;;;;0.75;100.00;98006.22;5071338;28;20025;-75
2023/02/04 02:57:44;;;;;;;1999.90;999.90;;;;;;;0.71;100.00;97997.00;5071025;28;20032;-75
2023/02/04 03:00:15;;;;;;;1999.90;999.90;;;;;;;0.67;100.00;97990.44;5070696;28;20025;-76
2023/02/04 03:02:42;;;;;;;1999.90;999.90;;;;;;;0.67;100.00;98003.88;5071111;28;20051;-75
2023/02/04 03:05:08;;;;;;;1999.90;999.90;;;;;;;0.69;100.00;98004.47;5070011;28;20035;-75
2023/02/04 03:07:34;;;;;;;1999.90;999.90;;;;;;;0.63;100.00;98008.09;5070316;28;20393;-75
2023/02/04 03:09:59;;;;;;;1999.90;999.90;;;;;;;0.64;100.00;97995.47;5071103;28;20045;-78
2023/02/04 03:12:25;;;;;;;1999.90;999.90;;;;;;;0.59;100.00;98003.41;5069677;28;20119;-75
2023/02/04 03:14:50;;;;;;;1999.90;999.90;;;;;;;0.60;100.00;97987.03;5071086;28;20110;-79
2023/02/04 03:17:16;;;;;;;1999.90;999.90;;;;;;;0.54;100.00;98001.41;5070772;28;20032;-76
2023/02/04 03:19:41;;;;;;;1999.90;999.90;;;;;;;0.71;100.00;97996.19;5071177;28;20534;-76
2023/02/04 03:22:07;;;;;;;1999.90;999.90;;;;;;;0.49;100.00;97977.06;5070649;28;20032;-75
2023/02/04 03:24:35;;;;;;;1999.90;999.90;;;;;;;0.59;100.00;97995.34;5071530;28;20035;-75
2023/02/04 03:27:00;;;;;;;1999.90;999.90;;;;;;;0.66;100.00;97993.38;5071686;28;20033;-76
2023/02/04 03:29:26;;;;;;;1999.90;999.90;;;;;;;0.71;100.00;97997.00;5070586;28;20031;-76
2023/02/04 03:31:54;;;;;;;1999.90;999.90;;;;;;;0.73;100.00;97994.88;5070637;28;20469;-74
2023/02/04 03:34:19;;;;;;;1999.90;999.90;;;;;;;0.73;100.00;97992.19;5070612;28;20024;-75
2023/02/04 03:36:45;;;;;;;1999.90;999.90;;;;;;;0.70;100.00;97994.53;5071071;28;20024;-76
2023/02/04 03:39:10;;;;;;;1999.90;999.90;;;;;;;0.79;100.00;98001.22;5070647;28;20024;-75
2023/02/04 03:41:35;;;;;;;1999.90;999.90;;;;;;;0.71;100.00;97994.31;5070645;28;20393;-76
2023/02/04 03:44:01;;;;;;;1999.90;999.90;;;;;;;0.58;100.00;97983.75;5068957;28;20048;-75
2023/02/04 03:46:27;;;;;;;1999.90;999.90;;;;;;;0.68;100.00;97981.31;5070333;28;20024;-74
2023/02/04 03:48:53;;;;;;;1999.90;999.90;;;;;;;0.54;100.00;97971.81;5070431;28;20108;-75
2023/02/04 03:51:18;;;;;;;1999.90;999.90;;;;;;;0.48;100.00;97978.09;5070439;28;20455;-76
2023/02/04 03:53:43;;;;;;;1999.90;999.90;;;;;;;0.68;100.00;97984.00;5070306;28;20118;-75
2023/02/04 03:56:09;;;;;;;1999.90;999.90;;;;;;;0.75;100.00;97973.94;5070351;28;20032;-78
2023/02/04 03:58:34;;;;;;;1999.90;999.90;;;;;;;0.73;100.00;97989.50;5076021;28;20422;-78
2023/02/04 04:01:00;;;;;;;1999.90;999.90;;;;;;;0.69;100.00;97982.94;5084215;28;20055;-77
2023/02/04 04:03:25;;;;;;;1999.90;999.90;;;;;;;0.76;100.00;97980.97;5077742;28;20527;-76
2023/02/04 04:05:50;;;;;;;1999.90;999.90;;;;;;;0.73;100.00;97959.91;5070198;28;20380;-75
2023/02/04 04:08:16;;;;;;;1999.90;999.90;;;;;;;0.76;100.00;97966.69;5069951;28;20029;-77
2023/02/04 04:10:41;;;;;;;1999.90;999.90;;;;;;;0.81;100.00;97966.81;5068480;28;20583;-76
2023/02/04 04:13:07;;;;;;;1999.90;999.90;;;;;;;0.78;100.00;97964.59;5071615;28;20503;-78
2023/02/04 04:15:32;;;;;;;1999.90;999.90;;;;;;;0.95;100.00;97968.22;5073859;28;20033;-75
2023/02/04 04:17:57;;;;;;;1999.90;999.90;;;;;;;0.80;100.00;97957.09;5073824;28;20073;-76
2023/02/04 04:20:27;;;;;;;1999.90;999.90;;;;;;;0.79;100.00;97950.91;5090195;28;20034;-75
2023/02/04 04:22:52;;;;;;;1999.90;999.90;;;;;;;0.92;100.00;97956.06;5092863;28;20404;-77
2023/02/04 04:25:18;;;;;;;1999.90;999.90;;;;;;;0.97;100.00;97969.63;5093954;28;20031;-78
2023/02/04 04:27:43;;;;;;;1999.90;999.90;;;;;;;1.17;100.00;97963.88;5093838;28;20035;-75
2023/02/04 04:30:10;;;;;;;1999.90;999.90;;;;;;;1.21;100.00;97969.63;5093931;28;20024;-75
2023/02/04 04:32:35;;;;;;;1999.90;999.90;;;;;;;1.17;100.00;97946.91;5092077;28;20032;-74
2023/02/04 04:35:00;;;;;;;1999.90;999.90;;;;;;;1.40;100.00;97963.06;5094146;28;20031;-76
2023/02/04 04:37:26;;;;;;;1999.90;999.90;;;;;;;2.28;100.00;97957.25;5094508;28;20091;-76
2023/02/04 04:39:51;;;;;;;1999.90;999.90;;;;;;;2.57;100.00;97966.94;5094406;28;20111;-76
2023/02/04 04:42:17;;;;;;;1999.90;999.90;;;;;;;2.57;100.00;97953.44;5094159;28;20028;-77
2023/02/04 04:44:42;;;;;;;1999.90;999.90;;;;;;;2.50;100.00;97959.03;5093615;28;20111;-77
2023/02/04 04:47:07;;;;;;;1999.90;999.90;;;;;;;2.54;100.00;97964.72;5093354;28;20468;-78
2023/02/04 04:49:33;;;;;;;1999.90;999.90;;;;;;;2.44;100.00;97975.38;5093672;28;20028;-79
2023/02/04 04:51:58;;;;;;;1999.90;999.90;;;;;;;2.48;100.00;97949.50;5094860;28;20369;-81
2023/02/04 04:54:23;;;;;;;1999.90;999.90;;;;;;;2.58;100.00;97941.59;5093456;28;20031;-75
2023/02/04 04:56:49;;;;;;;1999.90;999.90;;;;;;;2.65;100.00;97948.47;5076186;28;20058;-75
2023/02/04 04:59:14;;;;;;;1999.90;999.90;;;;;;;2.88;100.00;97947.47;5073897;28;20018;-75
2023/02/04 05:01:40;;;;;;;1999.90;999.90;;;;;;;3.01;100.00;97946.31;5073002;28;20024;-76
2023/02/04 05:04:06;;;;;;;1999.90;999.90;;;;;;;2.98;100.00;97958.44;5072803;28;20059;-75
2023/02/04 05:06:31;;;;;;;1999.90;999.90;;;;;;;2.94;100.00;97964.59;5073553;28;20469;-78
2023/02/04 05:08:57;;;;;;;1999.90;999.90;;;;;;;2.91;100.00;97949.72;5075082;28;20049;-81
2023/02/04 05:11:22;;;;;;;1999.90;999.90;;;;;;;2.91;100.00;97965.91;5075130;28;20135;-80
2023/02/04 05:13:47;;;;;;;1999.90;999.90;;;;;;;2.87;100.00;97970.16;5073374;28;20020;-79
2023/02/04 05:16:13;;;;;;;1999.90;999.90;;;;;;;2.90;100.00;97976.97;5083532;28;20028;-86
2023/02/04 05:18:40;;;;;;;1999.90;999.90;;;;;;;3.26;100.00;97992.63;5097104;28;20093;-84
2023/02/04 05:21:06;;;;;;;1999.90;999.90;;;;;;;3.08;100.00;97971.28;5096957;28;20028;-81
2023/02/04 05:23:32;;;;;;;1999.90;999.90;;;;;;;3.05;100.00;97991.53;5096030;28;20032;-86
2023/02/04 05:25:57;;;;;;;1999.90;999.90;;;;;;;2.96;100.00;97998.41;5096038;28;20016;-83
2023/02/04 05:28:23;;;;;;;1999.90;999.90;;;;;;;2.82;100.00;97977.38;5096212;28;20035;-84
2023/02/04 05:30:48;;;;;;;1999.90;999.90;;;;;;;2.82;100.00;97966.56;5095650;28;20032;-80
2023/02/04 05:33:14;;;;;;;1999.90;999.90;;;;;;;2.91;100.00;97987.53;5093455;28;20123;-82
2023/02/04 05:35:39;;;;;;;1999.90;999.90;;;;;;;2.80;100.00;97969.50;5095997;28;20392;-79
2023/02/04 05:38:04;;;;;;;1999.90;999.90;;;;;;;2.67;100.00;97975.22;5094508;28;20024;-81
2023/02/04 05:40:30;;;;;;;1999.90;999.90;;;;;;;2.78;100.00;97992.41;5094270;28;20059;-81
2023/02/04 05:42:55;;;;;;;1999.90;999.90;;;;;;;3.03;100.00;97971.22;5093089;28;20028;-79
2023/02/04 05:45:21;;;;;;;1999.90;999.90;;;;;;;3.11;100.00;97976.19;5093370;28;20490;-81
2023/02/04 05:47:46;;;;;;;1999.90;999.90;;;;;;;3.04;100.00;97972.84;5093632;28;20479;-87
2023/02/04 05:50:12;;;;;;;1999.90;999.90;;;;;;;2.97;100.00;97989.25;5098899;28;20024;-85
2023/02/04 05:52:39;;;;;;;1999.90;999.90;;;;;;;2.94;100.00;97981.63;5097002;28;20106;-77
2023/02/04 05:55:05;;;;;;;1999.90;999.90;;;;;;;2.87;100.00;97991.78;5093020;28;20039;-78
2023/02/04 05:57:30;;;;;;;1999.90;999.90;;;;;;;2.73;100.00;97982.34;5077705;28;20032;-81
2023/02/04 05:59:56;;;;;;;1999.90;999.90;;;;;;;2.64;100.00;97992.72;5083480;28;20047;-80
2023/02/04 06:02:21;;;;;;;1999.90;999.90;;;;;;;2.35;100.00;97993.81;5072698;28;20032;-81
2023/02/04 06:04:46;;;;;;;1999.90;999.90;;;;;;;2.40;100.00;98003.91;5072322;28;20016;-78
2023/02/04 06:07:12;;;;;;;1999.90;999.90;;;;;;;2.32;100.00;97998.91;5072830;28;20465;-78
2023/02/04 06:09:37;;;;;;;1999.90;999.90;;;;;;;2.17;100.00;98016.41;5072615;28;20105;-79
2023/02/04 06:12:03;;;;;;;1999.90;999.90;;;;;;;2.19;100.00;98018.91;5071339;28;20083;-76
2023/02/04 06:14:28;;;;;;;1999.90;999.90;;;;;;;2.27;100.00;98018.50;5072807;28;20037;-79
2023/02/04 06:16:53;;;;;;;1999.90;999.90;;;;;;;2.14;100.00;98014.22;5071544;28;20081;-79
2023/02/04 06:19:19;;;;;;;1999.90;999.90;;;;;;;2.13;100.00;98034.13;5073977;28;20025;-78
2023/02/04 06:21:44;;;;;;;1999.90;999.90;;;;;;;2.16;100.00;98033.66;5075206;28;20056;-77
2023/02/04 06:24:10;;;;;;;1999.90;999.90;;;;;;;2.28;100.00;98020.16;5072676;28;20052;-81
2023/02/04 06:26:35;;;;;;;1999.90;999.90;;;;;;;2.61;100.00;98030.19;5072669;28;20031;-81
2023/02/04 06:29:01;;;;;;;1999.90;999.90;;;;;;;3.02;100.00;98019.03;5072836;28;20473;-80
2023/02/04 06:31:26;;;;;;;1999.90;999.90;;;;;;;3.34;100.00;98029.25;5083731;28;20029;-81
2023/02/04 06:33:53;;;;;;;1999.90;999.90;;;;;;;4.40;100.00;98045.03;5073444;28;20035;-77
2023/02/04 06:36:18;;;;;;;1999.90;999.90;;;;;;;5.24;100.00;98029.84;5087567;28;20053;-77
2023/02/04 06:38:43;;;;;;;1999.90;999.90;;;;;;;6.26;85.93;98047.59;5092602;28;20455;-80
2023/02/04 06:41:09;;;;;;;1999.90;999.90;;;;;;;6.90;80.07;98054.31;5093424;28;20023;-79
2023/02/04 06:43:34;;;;;;;1999.90;999.90;;;;;;;7.03;79.08;98055.69;5091697;28;20109;-82
2023/02/04 06:45:59;;;;;;;1999.90;999.90;;;;;;;7.53;75.98;98063.88;5092175;28;20024;-78
2023/02/04 06:48:28;;;;;;;1999.90;999.90;;;;;;;8.24;70.41;98063.75;5093186;28;20028;-84
2023/02/04 06:50:53;;;;;;;1999.90;999.90;;;;;;;8.46;67.60;98077.88;5093172;28;20048;-79
2023/02/04 06:53:19;;;;;;;1999.90;999.90;;;;;;;8.81;63.27;98081.53;5092411;28;20075;-83
2023/02/04 06:55:44;;;;;;;1999.90;999.90;;;;;;;9.23;59.21;98089.19;5091088;28;20024;-80
2023/02/04 06:58:09;;;;;;;1999.90;999.90;;;;;;;9.26;58.11;98086.72;5092042;28;20106;-84
2023/02/04 07:00:35;;;;;;;1999.90;999.90;;;;;;;9.23;59.29;98109.13;5087975;28;20059;-77
2023/02/04 07:03:00;;;;;;;1999.90;999.90;;;;;;;9.39;56.42;98075.16;5070391;28;20032;-79
2023/02/04 07:05:25;;;;;;;1999.90;999.90;;;;;;;9.88;55.43;98120.63;5070606;28;20024;-82
2023/02/04 07:07:51;;;;;;;1999.90;999.90;;;;;;;9.96;55.62;98104.44;5073204;28;20078;-82
2023/02/04 07:10:17;;;;;;;1999.90;999.90;;;;;;;10.53;49.08;98092.66;5075053;28;20037;-77
2023/02/04 07:12:42;;;;;;;1999.90;999.90;;;;;;;11.01;46.83;98128.19;5076553;28;20029;-77
2023/02/04 07:15:08;;;;;;;1999.90;999.90;;;;;;;11.13;47.21;98131.31;5071480;28;20039;-83
2023/02/04 07:17:35;;;;;;;1999.90;999.90;;;;;;;11.36;47.80;98121.41;5086229;28;20076;-88
2023/02/04 07:20:00;;;;;;;1999.90;999.90;;;;;;;12.31;45.80;98122.56;5098165;28;20023;-86
2023/02/04 07:22:26;;;;;;;1999.90;999.90;;;;;;;12.95;43.33;98129.03;5098049;28;20032;-85
2023/02/04 07:24:51;;;;;;;1999.90;999.90;;;;;;;12.76;42.99;98120.91;5097879;28;20392;-83
2023/02/04 07:27:16;;;;;;;1999.90;999.90;;;;;;;12.50;43.19;98128.00;5091526;28;20103;-83
2023/02/04 07:29:42;;;;;;;1999.90;999.90;;;;;;;12.52;44.49;98130.44;5099260;28;20035;-86
2023/02/04 07:32:07;;;;;;;1999.90;999.90;;;;;;;12.46;43.45;98148.94;5098109;28;20032;-88
2023/02/04 07:34:33;;;;;;;1999.90;999.90;;;;;;;12.95;43.71;98155.66;5092620;28;20032;-87
2023/02/04 07:36:58;;;;;;;1999.90;999.90;;;;;;;13.23;42.81;98152.63;5099168;28;20028;-85
2023/02/04 07:39:23;;;;;;;1999.90;999.90;;;;;;;14.18;39.69;98167.19;5091959;28;20016;-86
2023/02/04 07:41:49;;;;;;;1999.90;999.90;;;;;;;15.31;37.26;98167.41;5083645;28;20032;-83
2023/02/04 07:44:14;;;;;;;1999.90;999.90;;;;;;;16.87;33.89;98153.22;5088619;28;20037;-83
2023/02/04 07:46:40;;;;;;;1999.90;999.90;;;;;;;18.17;30.72;98186.09;5088060;28;20021;-84
2023/02/04 07:49:05;;;;;;;1999.90;999.90;;;;;;;18.17;29.87;98174.19;5087642;28;20017;-87
2023/02/04 07:51:30;;;;;;;1999.90;999.90;;;;;;;19.04;29.78;98188.81;5086065;28;20052;-84
2023/02/04 07:53:56;;;;;;;1999.90;999.90;;;;;;;18.92;27.50;98188.81;5081727;28;20029;-83
2023/02/04 07:56:21;;;;;;;1999.90;999.90;;;;;;;19.79;26.82;98201.22;5082939;28;20029;-79
2023/02/04 07:58:47;;;;;;;1999.90;999.90;;;;;;;19.12;27.49;98199.78;5083012;28;20063;-86
2023/02/04 08:01:12;;;;;;;1999.90;999.90;;;;;;;19.07;26.26;98196.44;5081641;28;20032;-82
2023/02/04 08:03:38;;;;;;;1999.90;999.90;;;;;;;19.35;25.97;98202.13;5086475;28;20075;-83
2023/02/04 08:06:03;;;;;;;1999.90;999.90;;;;;;;18.46;25.97;98189.91;5086546;28;20012;-82
2023/02/04 08:08:29;;;;;;;1999.90;999.90;;;;;;;18.84;26.11;98204.38;5094497;28;20047;-89
2023/02/04 08:10:54;;;;;;;1999.90;999.90;;;;;;;18.91;26.19;98209.34;5095799;28;20040;-80
2023/02/04 08:13:19;;;;;;;1999.90;999.90;;;;;;;18.58;26.44;98198.28;5094227;28;20113;-83
2023/02/04 08:15:45;;;;;;;1999.90;999.90;;;;;;;17.67;27.04;98193.63;5092926;28;20074;-83
2023/02/04 08:18:10;;;;;;;1999.90;999.90;;;;;;;17.57;26.83;98194.06;5085931;28;20020;-84
2023/02/04 08:20:35;;;;;;;1999.90;999.90;;;;;;;16.70;27.27;98187.22;5099986;28;20034;-83
2023/02/04 08:23:01;;;;;;;1999.90;999.90;;;;;;;17.00;27.80;98218.53;5099898;28;20036;-88
2023/02/04 08:25:27;;;;;;;1999.90;999.90;;;;;;;17.17;26.76;98212.09;5102088;28;20028;-82
2023/02/04 08:27:53;;;;;;;1999.90;999.90;;;;;;;17.62;26.59;98224.28;5097860;28;20058;-84
2023/02/04 08:30:18;;;;;;;1999.90;999.90;;;;;;;16.90;26.78;98203.13;5096293;28;20107;-84
2023/02/04 08:32:44;;;;;;;1999.90;999.90;;;;;;;17.74;25.61;98218.00;5105973;28;20020;-84
2023/02/04 08:35:09;;;;;;;1999.90;999.90;;;;;;;18.50;24.70;98232.44;5104844;28;20387;-84
2023/02/04 08:37:35;;;;;;;1999.90;999.90;;;;;;;18.12;24.68;98227.84;5103458;28;20035;-84
2023/02/04 08:40:00;;;;;;;1999.90;999.90;;;;;;;18.01;24.94;98234.91;5104077;28;20064;-84
2023/02/04 08:42:25;;;;;;;1999.90;999.90;;;;;;;17.27;25.01;98233.84;5106201;28;20017;-87
2023/02/04 08:44:51;;;;;;;1999.90;999.90;;;;;;;17.50;23.90;98238.81;5101010;28;20055;-88
2023/02/04 08:47:19;;;;;;;1999.90;999.90;;;;;;;17.22;24.39;98231.28;5099425;28;20065;-85
2023/02/04 08:49:44;;;;;;;1999.90;999.90;;;;;;;17.81;23.79;98235.72;5096292;28;20024;-87
2023/02/04 08:52:10;;;;;;;1999.90;999.90;;;;;;;17.87;23.92;98244.63;5089399;28;20045;-80
2023/02/04 08:54:35;;;;;;;1999.90;999.90;;;;;;;18.63;22.87;98234.09;5095058;28;20032;-85
2023/02/04 08:57:01;;;;;;;1999.90;999.90;;;;;;;19.35;21.09;98257.63;5092695;28;20009;-84
2023/02/04 08:59:27;;;;;;;1999.90;999.90;;;;;;;18.04;21.09;98248.06;5095910;28;20044;-83
2023/02/04 09:01:52;;;;;;;1999.90;999.90;;;;;;;18.54;21.17;98259.09;5092344;28;20111;-76
2023/02/04 09:04:19;;;;;;;1999.90;999.90;;;;;;;18.95;20.70;98280.41;5087588;28;20361;-80
2023/02/04 09:06:44;;;;;;;1999.90;999.90;;;;;;;17.90;20.31;98253.06;5087206;28;20004;-77
2023/02/04 09:09:10;;;;;;;1999.90;999.90;;;;;;;17.76;20.19;98262.78;5086328;28;20066;-84
2023/02/04 09:11:35;;;;;;;1999.90;999.90;;;;;;;18.17;20.34;98247.00;5083815;28;20086;-78
2023/02/04 09:14:01;;;;;;;1999.90;999.90;;;;;;;18.35;19.90;98246.88;5089995;28;20055;-78
2023/02/04 09:16:26;;;;;;;1999.90;999.90;;;;;;;18.44;19.73;98237.34;5088518;28;20111;-81
2023/02/04 09:18:51;;;;;;;1999.90;999.90;;;;;;;17.87;20.15;98248.22;5089017;28;20103;-77
2023/02/04 09:21:17;;;;;;;1999.90;999.90;;;;;;;17.80;20.31;98261.75;5091741;28;20044;-83
2023/02/04 09:23:43;;;;;;;1999.90;999.90;;;;;;;18.48;19.51;98254.09;5087272;28;20053;-80
2023/02/04 09:26:09;;;;;;;1999.90;999.90;;;;;;;17.02;20.29;98260.47;5085119;28;20373;-83
2023/02/04 09:28:34;;;;;;;1999.90;999.90;;;;;;;17.81;20.62;98266.16;5087098;28;20034;-78
2023/02/04 09:30:59;;;;;;;1999.90;999.90;;;;;;;17.89;20.29;98264.47;5091981;28;20044;-83
2023/02/04 09:33:25;;;;;;;1999.90;999.90;;;;;;;17.95;20.42;98271.47;5098397;28;20082;-86
2023/02/04 09:35:50;;;;;;;1999.90;999.90;;;;;;;17.38;20.78;98282.13;5087725;28;20020;-82
2023/02/04 09:38:16;;;;;;;1999.90;999.90;;;;;;;17.26;20.45;98287.56;5086902;28;20030;-77
2023/02/04 09:40:48;;;;;;;1999.90;999.90;;;;;;;18.26;20.13;98288.50;5086725;28;20746;-83
2023/02/04 09:43:20;;;;;;;1999.90;999.90;;;;;;;18.82;19.87;98312.03;5079365;28;20024;-79
2023/02/04 09:45:48;;;;;;;1999.90;999.90;;;;;;;18.26;20.12;98301.53;5077944;28;20040;-82
2023/02/04 09:48:14;;;;;;;1999.90;999.90;;;;;;;17.04;20.50;98289.38;5077688;28;20028;-79
2023/02/04 09:50:40;;;;;;;1999.90;999.90;;;;;;;16.58;20.95;98301.16;5074251;28;20028;-77
2023/02/04 09:53:06;;;;;;;1999.90;999.90;;;;;;;16.92;21.17;98327.94;5080799;28;20044;-75
2023/02/04 09:55:37;;;;;;;1999.90;999.90;;;;;;;17.63;20.85;98331.03;5075391;28;20032;-77
2023/02/04 09:58:11;;;;;;;1999.90;999.90;;;;;;;17.11;21.35;98336.69;5072887;28;20032;-76
2023/02/04 10:00:37;;;;;;;1999.90;999.90;;;;;;;16.66;22.15;98341.00;5071773;28;20024;-76
2023/02/04 10:03:02;;;;;;;1999.90;999.90;;;;;;;16.96;21.91;98328.09;5074164;28;20033;-77
2023/02/04 10:05:30;;;;;;;1999.90;999.90;;;;;;;15.61;23.17;98342.19;5089286;28;20032;-74
2023/02/04 10:07:57;;;;;;;1999.90;999.90;;;;;;;16.20;22.35;98326.94;5093511;28;20016;-79
2023/02/04 10:10:26;;;;;;;1999.90;999.90;;;;;;;16.89;21.98;98327.78;5091863;28;20044;-78
2023/02/04 10:12:55;;;;;;;1999.90;999.90;;;;;;;17.20;22.33;98339.44;5092517;28;20058;-82
2023/02/04 10:15:21;;;;;;;1999.90;999.90;;;;;;;16.81;22.46;98343.25;5092474;28;20081;-75
2023/02/04 10:17:49;;;;;;;1999.90;999.90;;;;;;;17.27;22.47;98331.44;5085524;28;20388;-75
2023/02/04 10:20:17;;;;;;;1999.90;999.90;;;;;;;17.81;21.77;98338.13;5080458;28;20048;-75
2023/02/04 10:22:46;;;;;;;1999.90;999.90;;;;;;;17.44;21.91;98345.25;5087435;28;20365;-80
2023/02/04 10:25:16;;;;;;;1999.90;999.90;;;;;;;16.92;21.74;98338.19;5090377;28;20023;-80
2023/02/04 10:27:59;;;;;;;1999.90;999.90;;;;;;;15.39;23.65;98354.06;5079653;28;20039;-76
2023/02/04 10:30:36;;;;;;;1999.90;999.90;;;;;;;16.20;23.39;98351.78;5075900;28;20036;-78
2023/02/04 10:33:22;;;;;;;1999.90;999.90;;;;;;;16.15;24.01;98343.66;5087836;28;20443;-78
2023/02/04 10:35:50;;;;;;;1999.90;999.90;;;;;;;16.73;22.86;98352.34;5085591;28;20034;-81
2023/02/04 10:38:16;;;;;;;1999.90;999.90;;;;;;;17.17;23.14;98362.22;5082954;28;20088;-78
2023/02/04 10:40:41;;;;;;;1999.90;999.90;;;;;;;17.06;22.32;98380.28;5089792;28;20123;-75
2023/02/04 10:43:36;;;;;;;1999.90;999.90;;;;;;;16.61;22.71;98390.84;5087740;28;20098;-77
2023/02/04 10:46:02;;;;;;;1999.90;999.90;;;;;;;15.30;23.66;98369.75;5072658;28;20032;-79
2023/02/04 10:48:29;;;;;;;1999.90;999.90;;;;;;;15.37;23.81;98389.41;5090747;28;20540;-76
2023/02/04 10:50:57;;;;;;;1999.90;999.90;;;;;;;15.57;23.11;98410.97;5078359;28;20162;-74